Time;durP1;ratioP1;P1;durP2;ratioP2;P2;SDS_P1;SDS_P2;PMS_P1;PMS_P2;Temp;Humidity;BMP_temperature;BMP_pressure;BME280_temperature;BME280_humidity;BME280_pressure;Samples;Min_cycle;Max_cycle;Signal;HPM_P1;HPM_P2
2022/02/27 00:01:54;;;;;;;24.43;13.77;;;;;;;1.88;100.00;101397.94;4977038;28;20034;-80
2022/02/27 00:04:19;;;;;;;20.97;14.00;;;;;;;1.72;100.00;101372.78;4994488;28;20030;-79
2022/02/27 00:06:44;;;;;;;25.37;14.17;;;;;;;1.91;100.00;101413.50;4976913;28;20034;-84
2022/02/27 00:09:10;;;;;;;24.90;13.83;;;;;;;1.94;100.00;101389.19;4993442;28;20030;-79
2022/02/27 00:11:35;;;;;;;23.33;14.20;;;;;;;2.08;100.00;101384.38;4976433;28;20097;-79
2022/02/27 00:14:01;;;;;;;22.73;13.93;;;;;;;2.33;100.00;101389.00;4976864;28;20065;-80
2022/02/27 00:16:26;;;;;;;25.93;15.37;;;;;;;2.40;100.00;101371.81;4993087;28;20495;-79
2022/02/27 00:18:52;;;;;;;19.23;12.93;;;;;;;2.68;98.76;101392.00;4994168;28;20497;-77
2022/02/27 00:21:17;;;;;;;22.33;13.80;;;;;;;2.78;98.43;101378.34;4994143;28;20038;-79
2022/02/27 00:23:43;;;;;;;24.17;13.90;;;;;;;2.79;97.54;101358.84;4992117;28;20049;-79
2022/02/27 00:26:08;;;;;;;23.07;14.03;;;;;;;2.95;95.58;101371.19;4992365;28;20038;-79
2022/02/27 00:28:34;;;;;;;27.00;14.67;;;;;;;2.87;95.22;101356.16;4993416;28;20458;-79
2022/02/27 00:31:00;;;;;;;22.13;14.10;;;;;;;2.99;94.25;101358.81;4991903;28;20026;-78
2022/02/27 00:33:25;;;;;;;24.43;13.87;;;;;;;2.90;94.46;101365.72;4993301;28;20095;-77
2022/02/27 00:35:51;;;;;;;24.73;14.37;;;;;;;2.87;95.02;101355.28;4993514;28;20034;-76
2022/02/27 00:38:16;;;;;;;20.43;13.23;;;;;;;2.72;94.96;101357.44;4975490;28;20061;-80
2022/02/27 00:40:42;;;;;;;26.07;14.10;;;;;;;2.46;96.15;101348.50;4992494;28;20038;-81
2022/02/27 00:43:07;;;;;;;21.47;13.60;;;;;;;2.49;96.71;101360.63;4992403;28;20515;-77
2022/02/27 00:45:33;;;;;;;22.97;14.03;;;;;;;2.30;97.69;101356.53;4992969;28;20026;-77
2022/02/27 00:47:59;;;;;;;23.47;14.43;;;;;;;2.05;98.88;101356.97;4992882;28;20588;-76
2022/02/27 00:50:24;;;;;;;25.07;14.47;;;;;;;2.14;99.19;101351.78;4951511;28;20561;-78
2022/02/27 00:52:51;;;;;;;23.73;13.93;;;;;;;2.04;99.55;101352.66;4951928;28;20048;-82
2022/02/27 00:55:16;;;;;;;22.30;13.50;;;;;;;1.93;100.00;101330.47;4951623;28;20047;-80
2022/02/27 00:57:42;;;;;;;25.13;14.10;;;;;;;1.84;100.00;101309.31;4951620;28;20464;-79
2022/02/27 01:00:08;;;;;;;23.60;14.00;;;;;;;2.05;100.00;101335.72;4935535;28;20043;-78
2022/02/27 01:02:34;;;;;;;23.10;13.90;;;;;;;1.99;100.00;101325.91;4951500;28;20445;-78
2022/02/27 01:04:59;;;;;;;26.20;13.43;;;;;;;2.00;100.00;101319.16;4951684;28;20040;-80
2022/02/27 01:07:25;;;;;;;24.80;14.13;;;;;;;1.92;100.00;101296.47;4942720;28;20039;-78
2022/02/27 01:09:50;;;;;;;25.60;14.20;;;;;;;1.99;100.00;101323.34;4964546;28;20046;-79
2022/02/27 01:12:17;;;;;;;26.40;13.47;;;;;;;1.94;100.00;101311.88;4974431;28;20035;-76
2022/02/27 01:14:42;;;;;;;21.13;13.63;;;;;;;1.97;100.00;101301.97;4990641;28;20125;-78
2022/02/27 01:17:08;;;;;;;23.97;14.20;;;;;;;2.00;100.00;101304.75;4990418;28;20140;-78
2022/02/27 01:19:34;;;;;;;25.20;14.47;;;;;;;2.09;100.00;101308.09;4990792;28;20034;-79
2022/02/27 01:22:00;;;;;;;22.03;14.00;;;;;;;2.01;100.00;101304.00;5021541;28;20447;-77
2022/02/27 01:24:25;;;;;;;27.20;14.87;;;;;;;1.89;100.00;101300.41;5031645;28;20026;-77
2022/02/27 01:26:51;;;;;;;25.30;14.60;;;;;;;1.69;100.00;101294.50;5032422;28;20075;-77
2022/02/27 01:29:17;;;;;;;21.97;14.03;;;;;;;1.56;100.00;101304.41;5032068;28;20420;-68
2022/02/27 01:31:42;;;;;;;23.77;14.33;;;;;;;1.47;100.00;101312.16;5031923;28;20565;-77
2022/02/27 01:34:07;;;;;;;28.23;15.97;;;;;;;1.38;100.00;101309.66;5031905;28;20040;-77
2022/02/27 01:36:33;;;;;;;21.93;14.53;;;;;;;1.25;100.00;101304.28;5031863;28;20498;-78
2022/02/27 01:38:59;;;;;;;24.73;14.13;;;;;;;1.29;100.00;101313.97;5007833;28;20022;-76
2022/02/27 01:41:25;;;;;;;26.40;14.53;;;;;;;1.02;100.00;101253.94;5012155;28;20062;-79
2022/02/27 01:43:51;;;;;;;25.80;14.70;;;;;;;1.21;100.00;101286.94;5008765;28;20026;-76
2022/02/27 01:46:17;;;;;;;27.77;14.73;;;;;;;1.27;100.00;101287.47;5010007;28;20070;-76
2022/02/27 01:48:43;;;;;;;23.90;14.93;;;;;;;1.27;100.00;101265.50;5011546;28;20052;-78
2022/02/27 01:51:09;;;;;;;23.57;15.17;;;;;;;1.15;100.00;101239.00;5011662;28;20563;-79
2022/02/27 01:53:34;;;;;;;23.97;13.87;;;;;;;1.43;100.00;101280.44;4993887;28;20037;-77
2022/02/27 01:56:01;;;;;;;23.43;15.00;;;;;;;1.22;100.00;101309.09;4994312;28;20029;-78
2022/02/27 01:58:27;;;;;;;23.73;14.17;;;;;;;0.86;100.00;101292.34;5012021;28;20037;-76
2022/02/27 02:00:53;;;;;;;26.87;14.27;;;;;;;1.02;100.00;101307.34;5011729;28;20069;-77
2022/02/27 02:03:18;;;;;;;26.87;15.33;;;;;;;1.09;100.00;101307.13;4993956;28;20037;-79
2022/02/27 02:05:44;;;;;;;27.97;16.63;;;;;;;1.06;100.00;101317.91;4993174;28;20046;-78
2022/02/27 02:08:09;;;;;;;23.23;14.27;;;;;;;1.17;100.00;101321.38;4992328;28;20034;-78
2022/02/27 02:10:35;;;;;;;25.20;14.77;;;;;;;1.09;100.00;101294.41;5009776;28;20106;-79
2022/02/27 02:13:02;;;;;;;24.13;14.37;;;;;;;1.34;100.00;101322.00;4993735;28;20022;-77
2022/02/27 02:15:27;;;;;;;26.37;15.07;;;;;;;1.32;100.00;101319.34;5010227;28;20045;-78
2022/02/27 02:17:53;;;;;;;24.60;14.20;;;;;;;1.39;100.00;101314.00;4988546;28;20534;-78
2022/02/27 02:20:18;;;;;;;24.90;14.00;;;;;;;1.48;100.00;101307.94;4988462;28;20579;-78
2022/02/27 02:22:44;;;;;;;25.73;15.27;;;;;;;1.44;100.00;101289.84;4986961;28;20535;-77
2022/02/27 02:25:10;;;;;;;28.53;13.93;;;;;;;1.32;100.00;101271.00;4987848;28;20037;-78
2022/02/27 02:27:35;;;;;;;31.60;16.43;;;;;;;1.51;100.00;101300.56;4988353;28;20050;-81
2022/02/27 02:30:01;;;;;;;29.90;16.77;;;;;;;1.31;100.00;101253.03;4972329;28;20089;-81
2022/02/27 02:32:26;;;;;;;34.67;17.87;;;;;;;1.68;100.00;101304.56;4988611;28;20046;-82
2022/02/27 02:34:52;;;;;;;33.37;18.40;;;;;;;1.61;100.00;101277.72;4988379;28;20405;-82
2022/02/27 02:37:17;;;;;;;34.30;18.33;;;;;;;1.66;100.00;101270.44;4971560;28;20053;-83
2022/02/27 02:39:43;;;;;;;33.63;17.60;;;;;;;1.67;100.00;101287.50;4987860;28;20098;-78
2022/02/27 02:42:08;;;;;;;33.27;18.30;;;;;;;1.44;100.00;101261.84;4988226;28;20413;-79
2022/02/27 02:44:34;;;;;;;29.47;17.43;;;;;;;1.44;100.00;101281.34;4971754;28;20042;-79
2022/02/27 02:47:00;;;;;;;25.87;16.47;;;;;;;1.42;100.00;101278.66;4988513;28;20034;-81
2022/02/27 02:49:25;;;;;;;30.43;16.47;;;;;;;1.48;100.00;101287.59;5003950;28;20100;-81
2022/02/27 02:51:51;;;;;;;30.50;16.93;;;;;;;1.50;100.00;101291.16;4991966;28;20049;-79
2022/02/27 02:54:16;;;;;;;32.80;16.73;;;;;;;1.57;100.00;101296.00;5010405;28;20034;-80
2022/02/27 02:56:42;;;;;;;29.10;17.50;;;;;;;1.49;100.00;101295.34;4993190;28;20474;-80
2022/02/27 02:59:08;;;;;;;25.93;16.10;;;;;;;1.47;100.00;101301.06;5010890;28;20033;-79
2022/02/27 03:01:34;;;;;;;25.43;14.80;;;;;;;1.44;100.00;101302.56;5011137;28;20041;-79
2022/02/27 03:04:01;;;;;;;23.50;15.00;;;;;;;1.39;100.00;101288.56;4993008;28;20074;-79
2022/02/27 03:06:26;;;;;;;28.10;15.90;;;;;;;1.55;100.00;101289.91;4992800;28;20041;-80
2022/02/27 03:08:52;;;;;;;27.40;15.23;;;;;;;1.64;100.00;101270.31;5010844;28;20037;-79
2022/02/27 03:11:19;;;;;;;26.37;16.00;;;;;;;1.71;100.00;101282.81;5010807;28;20041;-79
2022/02/27 03:13:45;;;;;;;28.03;16.90;;;;;;;1.79;100.00;101291.09;5010860;28;20468;-77
2022/02/27 03:16:11;;;;;;;26.57;15.60;;;;;;;1.87;100.00;101279.00;5010700;28;20121;-79
2022/02/27 03:18:36;;;;;;;22.67;15.67;;;;;;;1.88;100.00;101291.91;5010540;28;20137;-79
2022/02/27 03:21:04;;;;;;;30.10;15.93;;;;;;;1.63;100.00;101286.34;4992213;28;20502;-80
2022/02/27 03:23:31;;;;;;;24.53;13.90;;;;;;;1.30;100.00;101241.97;5010349;28;20054;-80
2022/02/27 03:25:58;;;;;;;26.43;14.30;;;;;;;1.40;100.00;101297.97;5007903;28;20026;-79
2022/02/27 03:28:23;;;;;;;26.80;14.43;;;;;;;1.40;100.00;101307.28;4964317;28;20449;-79
2022/02/27 03:30:49;;;;;;;25.53;14.23;;;;;;;1.38;100.00;101302.03;4965836;28;20043;-79
2022/02/27 03:33:15;;;;;;;24.87;14.33;;;;;;;1.36;100.00;101289.94;4968751;28;20049;-79
2022/02/27 03:35:41;;;;;;;23.27;14.10;;;;;;;1.39;100.00;101287.69;4971715;28;20031;-80
2022/02/27 03:38:07;;;;;;;29.83;14.30;;;;;;;1.21;100.00;101290.41;4971560;28;20050;-80
2022/02/27 03:40:33;;;;;;;25.77;13.67;;;;;;;1.10;100.00;101283.47;4970363;28;20035;-80
2022/02/27 03:42:58;;;;;;;22.70;13.53;;;;;;;1.11;100.00;101296.34;4971072;28;20645;-77
2022/02/27 03:45:24;;;;;;;27.53;13.87;;;;;;;0.96;100.00;101285.69;4971612;28;20042;-77
2022/02/27 03:47:50;;;;;;;24.70;14.40;;;;;;;0.60;100.00;101232.50;4971378;28;20039;-78
2022/02/27 03:50:17;;;;;;;24.00;14.33;;;;;;;1.08;100.00;101302.78;4972395;28;20046;-80
2022/02/27 03:52:43;;;;;;;31.23;15.03;;;;;;;1.09;100.00;101292.75;4956091;28;20042;-80
2022/02/27 03:55:11;;;;;;;27.13;14.47;;;;;;;1.10;100.00;101263.16;4972311;28;20058;-79
2022/02/27 03:57:37;;;;;;;21.37;12.87;;;;;;;1.07;100.00;101273.94;4972520;28;20054;-77
2022/02/27 04:00:06;;;;;;;26.27;12.37;;;;;;;1.09;100.00;101307.13;5004719;28;20042;-77
2022/02/27 04:02:31;;;;;;;26.63;14.90;;;;;;;1.00;100.00;101286.88;5013994;28;20439;-77
2022/02/27 04:04:57;;;;;;;25.37;14.73;;;;;;;0.98;100.00;101262.06;4996616;28;20103;-78
2022/02/27 04:07:22;;;;;;;25.33;14.27;;;;;;;1.06;100.00;101277.22;5013745;28;20115;-79
2022/02/27 04:09:48;;;;;;;26.33;15.30;;;;;;;1.00;100.00;101275.78;4995503;28;20424;-78
2022/02/27 04:12:13;;;;;;;27.07;15.93;;;;;;;1.04;100.00;101281.28;4996024;28;20503;-78
2022/02/27 04:14:38;;;;;;;29.57;14.27;;;;;;;1.01;100.00;101275.94;5013155;28;20030;-78
2022/02/27 04:17:04;;;;;;;28.57;15.70;;;;;;;0.96;100.00;101262.81;5013456;28;20041;-78
2022/02/27 04:19:30;;;;;;;33.63;15.00;;;;;;;1.11;100.00;101270.91;5013235;28;20030;-79
2022/02/27 04:21:56;;;;;;;26.93;15.37;;;;;;;1.12;100.00;101265.06;5013369;28;20514;-78
2022/02/27 04:24:22;;;;;;;33.20;17.63;;;;;;;1.36;100.00;101278.13;4995880;28;20124;-79
2022/02/27 04:26:48;;;;;;;29.90;16.67;;;;;;;1.48;100.00;101279.94;5013886;28;20037;-78
2022/02/27 04:29:14;;;;;;;33.47;17.40;;;;;;;1.65;100.00;101300.09;5013087;28;20397;-78
2022/02/27 04:31:39;;;;;;;31.90;16.67;;;;;;;1.66;100.00;101301.00;5012115;28;20030;-78
2022/02/27 04:34:05;;;;;;;30.37;16.37;;;;;;;1.76;100.00;101317.19;5012095;28;20034;-78
2022/02/27 04:36:30;;;;;;;27.80;16.27;;;;;;;1.50;100.00;101258.09;4994871;28;20558;-78
2022/02/27 04:38:56;;;;;;;37.43;16.93;;;;;;;1.74;100.00;101313.59;5012829;28;20499;-79
2022/02/27 04:41:21;;;;;;;26.63;15.23;;;;;;;1.57;100.00;101311.25;4995773;28;20029;-78
2022/02/27 04:43:48;;;;;;;28.83;16.70;;;;;;;1.63;100.00;101323.66;4995465;28;20033;-78
2022/02/27 04:46:14;;;;;;;29.70;16.40;;;;;;;1.34;100.00;101271.13;4994896;28;20030;-78
2022/02/27 04:48:40;;;;;;;27.53;16.97;;;;;;;1.60;100.00;101335.34;5012018;28;20033;-79
2022/02/27 04:51:06;;;;;;;28.87;16.63;;;;;;;1.78;100.00;101358.06;4995458;28;20113;-77
2022/02/27 04:53:33;;;;;;;47.00;16.47;;;;;;;1.84;100.00;101355.16;5013221;28;20116;-79
2022/02/27 04:55:58;;;;;;;25.43;15.80;;;;;;;1.82;100.00;101357.56;4995127;28;20038;-79
2022/02/27 04:58:23;;;;;;;30.60;16.77;;;;;;;1.93;100.00;101368.66;5012770;28;20041;-80
2022/02/27 05:00:49;;;;;;;31.47;16.93;;;;;;;2.02;100.00;101364.38;5012646;28;20033;-79
2022/02/27 05:03:15;;;;;;;35.40;18.07;;;;;;;2.07;100.00;101352.03;5010464;28;20124;-80
2022/02/27 05:05:40;;;;;;;39.60;19.13;;;;;;;2.13;100.00;101344.94;4990266;28;20034;-79
2022/02/27 05:08:06;;;;;;;37.03;18.13;;;;;;;2.24;100.00;101350.91;4958199;28;20194;-79
2022/02/27 05:10:32;;;;;;;29.40;17.37;;;;;;;2.30;100.00;101348.00;4973691;28;20042;-80
2022/02/27 05:12:58;;;;;;;32.17;18.10;;;;;;;2.35;100.00;101331.44;4990444;28;20035;-79
2022/02/27 05:15:24;;;;;;;30.37;17.90;;;;;;;2.56;100.00;101337.44;4990238;28;20536;-79
2022/02/27 05:17:50;;;;;;;28.83;16.77;;;;;;;2.54;100.00;101332.22;4989813;28;20097;-79
2022/02/27 05:20:15;;;;;;;30.43;17.63;;;;;;;2.55;100.00;101322.91;4973973;28;20125;-80
2022/02/27 05:22:46;;;;;;;30.97;18.00;;;;;;;2.68;100.00;101341.00;4973567;28;20169;-78
2022/02/27 05:25:15;;;;;;;36.30;17.80;;;;;;;2.58;100.00;101320.63;4990448;28;20049;-79
2022/02/27 05:27:40;;;;;;;48.67;24.90;;;;;;;2.56;100.00;101324.69;4968603;28;20034;-84
2022/02/27 05:30:08;;;;;;;31.77;19.33;;;;;;;2.62;100.00;101322.66;4954217;28;20309;-80
2022/02/27 05:32:34;;;;;;;28.10;16.77;;;;;;;2.33;100.00;101267.63;4954372;28;20097;-79
2022/02/27 05:34:59;;;;;;;32.20;19.60;;;;;;;2.54;100.00;101301.63;4970439;28;20030;-80
2022/02/27 05:37:25;;;;;;;28.17;18.73;;;;;;;2.42;100.00;101273.47;4983397;28;20053;-78
2022/02/27 05:39:51;;;;;;;31.17;17.67;;;;;;;2.72;100.00;101314.09;4990977;28;20030;-80
2022/02/27 05:42:16;;;;;;;27.43;17.30;;;;;;;2.49;100.00;101271.41;4990536;28;20030;-82
2022/02/27 05:44:42;;;;;;;32.50;17.50;;;;;;;2.47;100.00;101267.84;4990146;28;20141;-78
2022/02/27 05:47:07;;;;;;;35.67;18.53;;;;;;;2.60;100.00;101298.66;4991020;28;20058;-82
2022/02/27 05:49:33;;;;;;;37.10;20.43;;;;;;;2.53;100.00;101270.88;4991799;28;20038;-82
2022/02/27 05:51:59;;;;;;;33.97;20.53;;;;;;;2.78;100.00;101309.50;4992185;28;20030;-80
2022/02/27 05:54:24;;;;;;;44.77;23.33;;;;;;;2.91;100.00;101313.94;4992177;28;20038;-79
2022/02/27 05:56:50;;;;;;;50.40;25.43;;;;;;;2.94;100.00;101280.13;4989824;28;20041;-86
2022/02/27 05:59:15;;;;;;;53.83;22.27;;;;;;;3.22;100.00;101303.66;4990976;28;20026;-76
2022/02/27 06:01:40;;;;;;;42.17;23.30;;;;;;;3.13;100.00;101249.31;4990386;28;20033;-77
2022/02/27 06:04:06;;;;;;;42.80;21.63;;;;;;;3.49;100.00;101296.38;4990710;28;20121;-80
2022/02/27 06:06:31;;;;;;;44.40;27.53;;;;;;;3.63;100.00;101307.72;4988554;28;20034;-77
2022/02/27 06:08:57;;;;;;;29.73;18.83;;;;;;;3.64;100.00;101295.06;4990866;28;20056;-77
2022/02/27 06:11:22;;;;;;;28.80;18.53;;;;;;;3.55;100.00;101279.91;5007166;28;20074;-77
2022/02/27 06:13:50;;;;;;;30.93;19.43;;;;;;;3.44;100.00;101250.09;5008506;28;20042;-77
2022/02/27 06:16:15;;;;;;;32.03;18.97;;;;;;;3.73;100.00;101282.13;5008362;28;20092;-77
2022/02/27 06:18:41;;;;;;;31.83;18.75;;;;;;;3.78;100.00;101296.13;4991984;28;20038;-77
2022/02/27 06:21:07;;;;;;;25.33;17.05;;;;;;;3.86;100.00;101296.72;5008126;28;20049;-77
2022/02/27 06:23:32;;;;;;;31.25;17.98;;;;;;;3.92;100.00;101299.75;4991612;28;20037;-76
2022/02/27 06:25:58;;;;;;;30.25;18.10;;;;;;;3.91;100.00;101303.06;4991347;28;20075;-83
2022/02/27 06:28:23;;;;;;;28.40;18.73;;;;;;;3.89;100.00;101286.75;5008661;28;20030;-82
2022/02/27 06:30:48;;;;;;;33.53;18.23;;;;;;;3.86;100.00;101276.28;4991505;28;20060;-83
2022/02/27 06:33:14;;;;;;;30.92;18.92;;;;;;;3.95;100.00;101268.44;5008927;28;20118;-80
2022/02/27 06:35:39;;;;;;;33.90;19.98;;;;;;;3.96;100.00;101272.75;5008242;28;20440;-82
2022/02/27 06:38:05;;;;;;;29.30;18.23;;;;;;;3.79;100.00;101245.91;5008606;28;20648;-81
2022/02/27 06:40:30;;;;;;;31.15;18.45;;;;;;;4.00;100.00;101296.13;5007730;28;20100;-84
2022/02/27 06:42:56;;;;;;;29.90;18.17;;;;;;;3.88;100.00;101272.19;4994711;28;20046;-81
2022/02/27 06:45:21;;;;;;;27.97;18.77;;;;;;;3.95;100.00;101297.44;4990483;28;20034;-82
2022/02/27 06:47:48;;;;;;;41.90;22.90;;;;;;;3.94;100.00;101294.75;4989901;28;20046;-83
2022/02/27 06:50:14;;;;;;;30.67;19.35;;;;;;;3.98;100.00;101304.44;4989929;28;20049;-84
2022/02/27 06:52:40;;;;;;;33.13;20.27;;;;;;;4.13;100.00;101318.38;4989915;28;20129;-87
2022/02/27 06:55:06;;;;;;;39.88;21.70;;;;;;;4.11;100.00;101299.50;4990985;28;20042;-84
2022/02/27 06:57:31;;;;;;;45.70;21.88;;;;;;;4.05;100.00;101274.38;4989751;28;20739;-86
2022/02/27 06:59:57;;;;;;;31.88;19.58;;;;;;;4.24;100.00;101295.28;4988980;28;20061;-86
2022/02/27 07:02:22;;;;;;;37.75;19.75;;;;;;;4.23;100.00;101261.19;4989703;28;20042;-87
2022/02/27 07:04:48;;;;;;;58.92;24.92;;;;;;;4.55;100.00;101303.63;4989734;28;20076;-84
2022/02/27 07:07:13;;;;;;;50.08;23.63;;;;;;;4.62;100.00;101300.75;4989492;28;20030;-85
2022/02/27 07:09:39;;;;;;;38.38;21.10;;;;;;;4.64;100.00;101286.41;4989056;28;20041;-84
2022/02/27 07:12:05;;;;;;;36.03;20.00;;;;;;;4.68;100.00;101293.50;4989703;28;20428;-80
2022/02/27 07:14:30;;;;;;;38.10;18.88;;;;;;;4.63;100.00;101266.69;4989201;28;20113;-77
2022/02/27 07:16:56;;;;;;;29.60;18.23;;;;;;;4.77;100.00;101282.19;4990865;28;20113;-80
2022/02/27 07:19:24;;;;;;;37.63;19.48;;;;;;;4.82;100.00;101292.00;4989913;28;20022;-79
2022/02/27 07:21:51;;;;;;;41.80;22.07;;;;;;;4.88;100.00;101300.88;4987929;28;20050;-80
2022/02/27 07:24:18;;;;;;;36.92;19.15;;;;;;;4.93;100.00;101291.88;5007999;28;20100;-79
2022/02/27 07:26:44;;;;;;;38.88;21.10;;;;;;;4.92;100.00;101288.44;5010521;28;20092;-78
2022/02/27 07:29:09;;;;;;;32.10;18.52;;;;;;;4.91;100.00;101278.06;5006022;28;20037;-80
2022/02/27 07:31:34;;;;;;;42.72;22.58;;;;;;;4.81;100.00;101259.50;5008565;28;20389;-79
2022/02/27 07:34:01;;;;;;;32.85;17.15;;;;;;;4.96;100.00;101282.75;5007550;28;20040;-79
2022/02/27 07:36:27;;;;;;;43.80;20.38;;;;;;;5.08;100.00;101284.41;5008832;28;20026;-79
2022/02/27 07:38:52;;;;;;;33.85;18.77;;;;;;;5.04;100.00;101264.50;5008790;28;20030;-79
2022/02/27 07:41:18;;;;;;;41.58;19.98;;;;;;;5.13;100.00;101275.41;5008329;28;20026;-78
2022/02/27 07:43:43;;;;;;;34.65;18.63;;;;;;;5.08;100.00;101257.16;5009549;28;20029;-80
2022/02/27 07:46:09;;;;;;;27.77;17.13;;;;;;;5.06;100.00;101260.38;4991352;28;20069;-80
2022/02/27 07:48:34;;;;;;;35.67;18.60;;;;;;;5.10;100.00;101267.50;4991959;28;20120;-80
2022/02/27 07:51:01;;;;;;;30.05;15.82;;;;;;;4.98;100.00;101244.47;4992524;28;20057;-81
2022/02/27 07:53:46;;;;;;;41.28;19.88;;;;;;;5.05;100.00;101256.03;4967051;28;20078;-82
2022/02/27 07:56:11;;;;;;;37.65;17.35;;;;;;;4.92;100.00;101224.47;4967596;28;20085;-79
2022/02/27 07:58:37;;;;;;;32.88;16.33;;;;;;;5.02;100.00;101241.34;4967325;28;20078;-79
2022/02/27 08:01:02;;;;;;;31.40;17.73;;;;;;;5.07;100.00;101251.91;4967779;28;20038;-77
2022/02/27 08:03:28;;;;;;;38.85;19.70;;;;;;;5.07;100.00;101234.91;4968372;28;20130;-78
2022/02/27 08:05:53;;;;;;;32.13;17.23;;;;;;;5.17;100.00;101259.47;4968142;28;20066;-78
2022/02/27 08:08:19;;;;;;;32.40;17.48;;;;;;;5.00;100.00;101227.56;4967112;28;20046;-78
2022/02/27 08:10:44;;;;;;;29.48;15.90;;;;;;;5.24;100.00;101260.81;4967528;28;20035;-78
2022/02/27 08:13:09;;;;;;;33.50;19.00;;;;;;;5.24;100.00;101238.66;4951994;28;20072;-78
2022/02/27 08:15:36;;;;;;;29.98;16.80;;;;;;;5.16;100.00;101224.44;4967893;28;20985;-78
2022/02/27 08:18:02;;;;;;;50.13;22.50;;;;;;;5.22;100.00;101221.41;4951996;28;20473;-78
2022/02/27 08:20:27;;;;;;;49.13;26.20;;;;;;;5.28;100.00;101225.31;4969125;28;20066;-77
2022/02/27 08:22:53;;;;;;;52.28;23.23;;;;;;;5.17;100.00;101211.75;4969903;28;20130;-78
2022/02/27 08:25:18;;;;;;;82.82;40.28;;;;;;;5.43;100.00;101234.81;4988917;28;20116;-78
2022/02/27 08:27:44;;;;;;;139.07;70.95;;;;;;;5.23;100.00;101180.56;5012483;28;20053;-78
2022/02/27 08:30:11;;;;;;;251.27;119.75;;;;;;;5.50;100.00;101220.00;5012522;28;20065;-77
2022/02/27 08:32:37;;;;;;;73.60;35.65;;;;;;;5.55;100.00;101217.75;5013111;28;20117;-77
2022/02/27 08:35:03;;;;;;;62.03;33.05;;;;;;;5.64;100.00;101228.63;5012802;28;20092;-78
2022/02/27 08:37:28;;;;;;;44.28;22.25;;;;;;;5.66;100.00;101231.31;5012983;28;20447;-78
2022/02/27 08:39:54;;;;;;;43.65;24.60;;;;;;;5.44;100.00;101205.88;5012573;28;20037;-77
2022/02/27 08:42:19;;;;;;;52.63;20.10;;;;;;;5.63;100.00;101226.88;5010297;28;20061;-78
2022/02/27 08:44:45;;;;;;;30.65;16.55;;;;;;;5.67;100.00;101213.47;5011497;28;20037;-78
2022/02/27 08:47:10;;;;;;;33.72;17.13;;;;;;;5.58;100.00;101215.44;5012148;28;20026;-78
2022/02/27 08:49:36;;;;;;;36.45;21.33;;;;;;;5.37;100.00;101183.19;5011723;28;20588;-78
2022/02/27 08:52:03;;;;;;;27.95;20.20;;;;;;;5.50;100.00;101206.31;5012361;28;20024;-78
2022/02/27 08:54:29;;;;;;;26.60;15.55;;;;;;;5.56;100.00;101204.19;5012309;28;20061;-77
2022/02/27 08:56:54;;;;;;;23.10;15.63;;;;;;;5.56;100.00;101195.59;5012982;28;20062;-78
2022/02/27 08:59:20;;;;;;;25.48;15.98;;;;;;;5.34;100.00;101148.91;5011727;28;20117;-80
2022/02/27 09:01:46;;;;;;;28.23;15.32;;;;;;;5.63;100.00;101201.25;5012507;28;20052;-80
2022/02/27 09:04:12;;;;;;;27.17;15.20;;;;;;;5.53;100.00;101172.34;5011595;28;20022;-79
2022/02/27 09:06:37;;;;;;;23.40;14.27;;;;;;;5.71;100.00;101206.91;5012098;28;20037;-79
2022/02/27 09:09:03;;;;;;;23.90;15.00;;;;;;;5.74;100.00;101208.78;5012003;28;20021;-79
2022/02/27 09:11:29;;;;;;;20.58;12.38;;;;;;;5.63;100.00;101196.13;4994398;28;20041;-79
2022/02/27 09:13:55;;;;;;;22.65;12.55;;;;;;;5.60;100.00;101190.78;4976761;28;20104;-79
2022/02/27 09:16:20;;;;;;;22.05;12.63;;;;;;;5.80;100.00;101207.50;5012266;28;20065;-79
2022/02/27 09:18:46;;;;;;;23.90;13.35;;;;;;;5.79;100.00;101200.59;4994243;28;20026;-79
2022/02/27 09:21:12;;;;;;;26.05;13.25;;;;;;;5.80;100.00;101198.94;5011901;28;20452;-79
2022/02/27 09:23:37;;;;;;;24.25;13.73;;;;;;;5.74;100.00;101190.84;5005320;28;20081;-79
2022/02/27 09:26:04;;;;;;;24.08;11.93;;;;;;;5.53;100.00;101150.16;5012071;28;20026;-76
2022/02/27 09:28:29;;;;;;;20.40;11.63;;;;;;;5.79;100.00;101189.47;5010911;28;20088;-76
2022/02/27 09:30:55;;;;;;;26.42;13.05;;;;;;;5.79;100.00;101186.91;4976619;28;20042;-77
2022/02/27 09:33:22;;;;;;;25.67;13.32;;;;;;;5.76;100.00;101167.09;5011279;28;20463;-76
2022/02/27 09:35:49;;;;;;;23.95;11.75;;;;;;;5.85;100.00;101184.78;4993914;28;20036;-77
2022/02/27 09:38:15;;;;;;;30.23;11.88;;;;;;;5.87;100.00;101174.63;5011432;28;20026;-77
2022/02/27 09:40:41;;;;;;;22.58;11.15;;;;;;;5.78;100.00;101172.31;5011771;28;20037;-76
2022/02/27 09:43:06;;;;;;;21.35;10.30;;;;;;;5.80;100.00;101181.00;5011538;28;20408;-76
2022/02/27 09:45:32;;;;;;;23.52;13.07;;;;;;;5.75;100.00;101161.88;4993798;28;20029;-76
2022/02/27 09:47:58;;;;;;;26.33;12.35;;;;;;;5.85;100.00;101171.97;5012283;28;20034;-76
2022/02/27 09:50:25;;;;;;;24.77;12.55;;;;;;;5.79;100.00;101157.03;5011079;28;20068;-76
2022/02/27 09:52:52;;;;;;;19.23;11.70;;;;;;;5.68;100.00;101160.56;4976293;28;20038;-77
2022/02/27 09:55:18;;;;;;;17.85;11.70;;;;;;;5.55;100.00;101156.28;5011765;28;20033;-76
2022/02/27 09:57:49;;;;;;;21.13;12.30;;;;;;;5.56;100.00;101155.50;5011714;28;20472;-77
2022/02/27 10:00:17;;;;;;;29.02;13.00;;;;;;;5.65;100.00;101162.94;5011661;28;20469;-77
2022/02/27 10:03:11;;;;;;;27.17;12.90;;;;;;;5.63;100.00;101159.38;5011368;28;20065;-78
2022/02/27 10:05:42;;;;;;;23.98;13.73;;;;;;;5.58;100.00;101153.94;4994232;28;20033;-79
2022/02/27 10:08:09;;;;;;;26.17;13.45;;;;;;;5.29;100.00;101108.41;4994378;28;20385;-78
2022/02/27 10:10:36;;;;;;;24.27;13.23;;;;;;;5.56;100.00;101142.69;5011817;28;20041;-79
2022/02/27 10:13:02;;;;;;;33.10;18.15;;;;;;;5.69;100.00;101146.97;5011840;28;20030;-78
2022/02/27 10:15:28;;;;;;;23.92;14.70;;;;;;;5.73;100.00;101143.84;5011864;28;20034;-79
2022/02/27 10:17:53;;;;;;;19.75;12.57;;;;;;;5.88;100.00;101144.00;5010777;28;20044;-79
2022/02/27 10:20:24;;;;;;;24.08;11.20;;;;;;;5.79;100.00;101113.47;5008163;28;20044;-78
2022/02/27 10:22:54;;;;;;;25.42;13.95;;;;;;;5.97;100.00;101113.84;5012779;28;20060;-78
2022/02/27 10:25:22;;;;;;;34.00;14.90;;;;;;;5.81;100.00;101068.38;5009210;28;20455;-78
2022/02/27 10:27:52;;;;;;;21.67;13.65;;;;;;;6.09;100.00;101103.53;5009625;28;20068;-79
2022/02/27 10:30:31;;;;;;;27.55;15.55;;;;;;;6.22;100.00;101110.34;5020216;28;20033;-79
2022/02/27 10:33:05;;;;;;;38.22;14.68;;;;;;;6.31;100.00;101097.22;4998836;28;20025;-78
2022/02/27 10:35:36;;;;;;;26.52;15.63;;;;;;;6.36;100.00;101085.59;5016320;28;20380;-78
2022/02/27 10:38:02;;;;;;;28.08;14.75;;;;;;;6.36;100.00;101097.53;5017581;28;20021;-80
2022/02/27 10:40:40;;;;;;;29.00;14.15;;;;;;;6.27;100.00;101067.94;5016240;28;20040;-81
2022/02/27 10:43:07;;;;;;;25.83;13.38;;;;;;;6.45;100.00;101068.19;4996778;28;20030;-81
2022/02/27 10:45:33;;;;;;;25.85;13.20;;;;;;;6.30;100.00;101021.09;5017027;28;20022;-80
2022/02/27 10:48:05;;;;;;;23.00;12.32;;;;;;;6.56;100.00;101042.34;5009512;28;20103;-80
2022/02/27 10:50:31;;;;;;;21.63;13.18;;;;;;;6.67;100.00;101059.31;5016049;28;20109;-80
2022/02/27 10:52:57;;;;;;;23.75;12.65;;;;;;;6.64;100.00;101059.09;5022443;28;20104;-80
2022/02/27 10:55:26;;;;;;;20.67;12.65;;;;;;;6.59;100.00;101063.06;5023174;28;20040;-78
2022/02/27 10:57:52;;;;;;;23.37;12.97;;;;;;;6.41;100.00;101020.06;4998084;28;20040;-77
2022/02/27 11:00:20;;;;;;;19.27;10.80;;;;;;;6.59;99.60;101063.06;5015386;28;20253;-79
2022/02/27 11:02:48;;;;;;;20.55;10.85;;;;;;;6.66;99.52;101056.66;4994939;28;20109;-79
2022/02/27 11:05:15;;;;;;;29.80;12.45;;;;;;;6.46;99.74;101017.81;5010359;28;20044;-76